sensor_id;sensor_type;location;lat;lon;timestamp;temperature;humidity
18317;DHT22;9284;52.298;21.164;2022-10-16T03:18:08;12.40;1.00
18317;DHT22;9284;52.298;21.164;2022-10-16T03:20:36;12.40;1.00
18317;DHT22;9284;52.298;21.164;2022-10-16T03:23:04;12.60;1.00
18317;DHT22;9284;52.298;21.164;2022-10-16T03:25:35;12.50;1.00
18317;DHT22;9284;52.298;21.164;2022-10-16T03:28:03;12.50;1.00
18317;DHT22;9284;52.298;21.164;2022-10-16T03:30:32;12.50;99.90
18317;DHT22;9284;52.298;21.164;2022-10-16T03:33:00;12.50;1.00
18317;DHT22;9284;52.298;21.164;2022-10-16T03:35:29;12.60;99.90
18317;DHT22;9284;52.298;21.164;2022-10-16T03:37:58;12.60;99.90
18317;DHT22;9284;52.298;21.164;2022-10-16T03:40:26;12.60;99.90
18317;DHT22;9284;52.298;21.164;2022-10-16T03:42:54;12.60;99.90
18317;DHT22;9284;52.298;21.164;2022-10-16T03:45:24;12.60;99.90
18317;DHT22;9284;52.298;21.164;2022-10-16T03:47:55;12.60;99.90
18317;DHT22;9284;52.298;21.164;2022-10-16T03:50:23;12.60;99.90
18317;DHT22;9284;52.298;21.164;2022-10-16T03:52:53;12.60;99.90
18317;DHT22;9284;52.298;21.164;2022-10-16T03:55:22;12.60;91.00
18317;DHT22;9284;52.298;21.164;2022-10-16T03:57:50;12.60;97.50
18317;DHT22;9284;52.298;21.164;2022-10-16T04:00:19;12.60;69.40
18317;DHT22;9284;52.298;21.164;2022-10-16T04:02:47;12.60;99.90
18317;DHT22;9284;52.298;21.164;2022-10-16T04:05:15;12.60;99.90
18317;DHT22;9284;52.298;21.164;2022-10-16T04:07:43;12.60;1.00
18317;DHT22;9284;52.298;21.164;2022-10-16T04:10:13;12.60;99.90
18317;DHT22;9284;52.298;21.164;2022-10-16T04:12:41;12.60;99.90
18317;DHT22;9284;52.298;21.164;2022-10-16T04:15:10;12.50;99.90
18317;DHT22;9284;52.298;21.164;2022-10-16T04:17:38;12.50;99.90
18317;DHT22;9284;52.298;21.164;2022-10-16T04:20:07;12.60;68.30
18317;DHT22;9284;52.298;21.164;2022-10-16T04:22:36;12.50;99.90
18317;DHT22;9284;52.298;21.164;2022-10-16T04:25:04;12.50;1.00
18317;DHT22;9284;52.298;21.164;2022-10-16T04:27:34;12.50;1.00
18317;DHT22;9284;52.298;21.164;2022-10-16T04:30:04;12.40;15.30
18317;DHT22;9284;52.298;21.164;2022-10-16T04:32:33;12.40;1.00
18317;DHT22;9284;52.298;21.164;2022-10-16T04:35:01;12.40;1.00
18317;DHT22;9284;52.298;21.164;2022-10-16T04:37:29;12.40;1.00
18317;DHT22;9284;52.298;21.164;2022-10-16T04:39:58;12.40;1.00
18317;DHT22;9284;52.298;21.164;2022-10-16T04:42:26;12.40;26.70
18317;DHT22;9284;52.298;21.164;2022-10-16T04:44:56;12.30;1.00
18317;DHT22;9284;52.298;21.164;2022-10-16T04:47:24;12.30;57.50
18317;DHT22;9284;52.298;21.164;2022-10-16T04:49:53;12.20;99.90
18317;DHT22;9284;52.298;21.164;2022-10-16T04:52:21;12.10;99.90
18317;DHT22;9284;52.298;21.164;2022-10-16T04:54:51;12.10;99.90
18317;DHT22;9284;52.298;21.164;2022-10-16T04:57:20;12.00;99.90
18317;DHT22;9284;52.298;21.164;2022-10-16T04:59:49;12.00;99.90
18317;DHT22;9284;52.298;21.164;2022-10-16T05:02:19;12.00;99.90
18317;DHT22;9284;52.298;21.164;2022-10-16T05:04:47;11.90;99.90
18317;DHT22;9284;52.298;21.164;2022-10-16T05:07:15;11.90;99.90
18317;DHT22;9284;52.298;21.164;2022-10-16T05:09:44;11.90;1.00
18317;DHT22;9284;52.298;21.164;2022-10-16T05:12:12;11.80;1.00
18317;DHT22;9284;52.298;21.164;2022-10-16T05:14:40;11.80;1.00
18317;DHT22;9284;52.298;21.164;2022-10-16T05:17:08;11.80;1.00
18317;DHT22;9284;52.298;21.164;2022-10-16T05:19:38;11.80;1.00
18317;DHT22;9284;52.298;21.164;2022-10-16T05:22:07;11.80;1.00
18317;DHT22;9284;52.298;21.164;2022-10-16T05:24:35;11.80;1.00
18317;DHT22;9284;52.298;21.164;2022-10-16T05:27:03;11.80;1.00
18317;DHT22;9284;52.298;21.164;2022-10-16T05:29:32;11.80;1.00
18317;DHT22;9284;52.298;21.164;2022-10-16T05:32:00;11.90;1.00
18317;DHT22;9284;52.298;21.164;2022-10-16T05:34:28;12.00;1.00
18317;DHT22;9284;52.298;21.164;2022-10-16T05:36:58;12.10;99.90
18317;DHT22;9284;52.298;21.164;2022-10-16T05:39:26;12.20;99.90
18317;DHT22;9284;52.298;21.164;2022-10-16T05:41:54;12.30;99.90
18317;DHT22;9284;52.298;21.164;2022-10-16T05:44:23;12.40;1.00
18317;DHT22;9284;52.298;21.164;2022-10-16T05:46:51;12.40;1.00
18317;DHT22;9284;52.298;21.164;2022-10-16T05:49:19;12.40;1.00
18317;DHT22;9284;52.298;21.164;2022-10-16T05:51:47;12.50;1.00
18317;DHT22;9284;52.298;21.164;2022-10-16T05:54:17;12.50;1.00
18317;DHT22;9284;52.298;21.164;2022-10-16T05:56:45;12.50;99.90
18317;DHT22;9284;52.298;21.164;2022-10-16T05:59:14;12.50;99.90
18317;DHT22;9284;52.298;21.164;2022-10-16T06:01:42;12.50;99.90
18317;DHT22;9284;52.298;21.164;2022-10-16T06:04:10;12.50;99.90
18317;DHT22;9284;52.298;21.164;2022-10-16T06:06:39;12.50;99.90
18317;DHT22;9284;52.298;21.164;2022-10-16T06:09:07;12.50;99.90
18317;DHT22;9284;52.298;21.164;2022-10-16T06:11:36;12.50;99.90
18317;DHT22;9284;52.298;21.164;2022-10-16T06:14:05;12.50;99.90
18317;DHT22;9284;52.298;21.164;2022-10-16T06:16:35;12.50;99.90
18317;DHT22;9284;52.298;21.164;2022-10-16T06:19:04;12.50;99.90
18317;DHT22;9284;52.298;21.164;2022-10-16T06:21:33;12.50;99.90
18317;DHT22;9284;52.298;21.164;2022-10-16T06:24:01;12.50;99.90
18317;DHT22;9284;52.298;21.164;2022-10-16T06:26:30;12.60;99.90
18317;DHT22;9284;52.298;21.164;2022-10-16T06:29:01;12.70;99.90
18317;DHT22;9284;52.298;21.164;2022-10-16T06:31:29;12.80;99.90
18317;DHT22;9284;52.298;21.164;2022-10-16T06:34:00;12.90;5.60
18317;DHT22;9284;52.298;21.164;2022-10-16T06:36:30;13.00;1.00
18317;DHT22;9284;52.298;21.164;2022-10-16T06:38:58;13.40;1.00
18317;DHT22;9284;52.298;21.164;2022-10-16T06:41:26;14.10;99.90
18317;DHT22;9284;52.298;21.164;2022-10-16T06:43:56;14.90;99.90
18317;DHT22;9284;52.298;21.164;2022-10-16T06:46:26;15.70;99.90
18317;DHT22;9284;52.298;21.164;2022-10-16T06:48:55;16.30;1.00
18317;DHT22;9284;52.298;21.164;2022-10-16T06:51:24;16.70;1.00
18317;DHT22;9284;52.298;21.164;2022-10-16T06:53:54;17.00;1.00
18317;DHT22;9284;52.298;21.164;2022-10-16T06:56:32;17.20;1.00
18317;DHT22;9284;52.298;21.164;2022-10-16T06:59:00;16.80;1.00
18317;DHT22;9284;52.298;21.164;2022-10-16T07:01:31;16.70;1.00
18317;DHT22;9284;52.298;21.164;2022-10-16T07:04:00;16.70;1.00
18317;DHT22;9284;52.298;21.164;2022-10-16T07:06:32;16.70;1.00
18317;DHT22;9284;52.298;21.164;2022-10-16T07:09:03;16.60;1.00
18317;DHT22;9284;52.298;21.164;2022-10-16T07:11:33;16.50;99.90
18317;DHT22;9284;52.298;21.164;2022-10-16T07:14:01;16.60;99.90
18317;DHT22;9284;52.298;21.164;2022-10-16T07:16:32;16.90;1.00
18317;DHT22;9284;52.298;21.164;2022-10-16T07:19:02;17.60;99.90
18317;DHT22;9284;52.298;21.164;2022-10-16T07:21:32;17.80;99.90
18317;DHT22;9284;52.298;21.164;2022-10-16T07:24:04;17.50;99.90
18317;DHT22;9284;52.298;21.164;2022-10-16T07:26:35;17.20;99.90
18317;DHT22;9284;52.298;21.164;2022-10-16T07:29:07;16.70;1.00
18317;DHT22;9284;52.298;21.164;2022-10-16T07:31:38;16.10;99.90
18317;DHT22;9284;52.298;21.164;2022-10-16T07:34:07;15.70;1.00
18317;DHT22;9284;52.298;21.164;2022-10-16T07:36:38;15.40;1.00
18317;DHT22;9284;52.298;21.164;2022-10-16T07:39:08;15.20;72.30
18317;DHT22;9284;52.298;21.164;2022-10-16T07:41:37;15.10;1.00
18317;DHT22;9284;52.298;21.164;2022-10-16T07:44:05;15.10;99.90
18317;DHT22;9284;52.298;21.164;2022-10-16T07:46:34;15.20;99.90
18317;DHT22;9284;52.298;21.164;2022-10-16T07:49:04;15.20;99.90
18317;DHT22;9284;52.298;21.164;2022-10-16T07:51:32;15.40;99.90
18317;DHT22;9284;52.298;21.164;2022-10-16T07:54:01;15.40;25.20
18317;DHT22;9284;52.298;21.164;2022-10-16T07:56:30;15.50;99.90
18317;DHT22;9284;52.298;21.164;2022-10-16T07:58:59;15.70;1.00
18317;DHT22;9284;52.298;21.164;2022-10-16T08:01:27;15.70;48.60
18317;DHT22;9284;52.298;21.164;2022-10-16T08:03:56;15.70;99.90
18317;DHT22;9284;52.298;21.164;2022-10-16T08:06:25;15.80;99.90
18317;DHT22;9284;52.298;21.164;2022-10-16T08:08:55;15.90;99.90
18317;DHT22;9284;52.298;21.164;2022-10-16T08:11:23;16.00;38.40
18317;DHT22;9284;52.298;21.164;2022-10-16T08:13:52;16.10;99.90
18317;DHT22;9284;52.298;21.164;2022-10-16T08:16:20;16.10;99.90
18317;DHT22;9284;52.298;21.164;2022-10-16T08:18:49;16.10;1.00
18317;DHT22;9284;52.298;21.164;2022-10-16T08:21:19;16.20;99.90
18317;DHT22;9284;52.298;21.164;2022-10-16T08:23:50;16.30;1.00
18317;DHT22;9284;52.298;21.164;2022-10-16T08:26:25;16.30;99.90
18317;DHT22;9284;52.298;21.164;2022-10-16T08:28:55;16.40;1.00
18317;DHT22;9284;52.298;21.164;2022-10-16T08:31:24;16.40;99.90
18317;DHT22;9284;52.298;21.164;2022-10-16T08:33:53;16.60;99.90
18317;DHT22;9284;52.298;21.164;2022-10-16T08:36:21;16.70;99.90
18317;DHT22;9284;52.298;21.164;2022-10-16T08:38:51;16.70;1.00
18317;DHT22;9284;52.298;21.164;2022-10-16T08:44:28;16.80;1.00
18317;DHT22;9284;52.298;21.164;2022-10-16T08:47:04;17.00;1.00
18317;DHT22;9284;52.298;21.164;2022-10-16T08:49:37;17.00;1.00
18317;DHT22;9284;52.298;21.164;2022-10-16T08:52:11;17.00;1.00
18317;DHT22;9284;52.298;21.164;2022-10-16T08:54:45;17.10;99.90
18317;DHT22;9284;52.298;21.164;2022-10-16T08:57:19;17.10;95.30
18317;DHT22;9284;52.298;21.164;2022-10-16T08:59:50;17.10;1.00
18317;DHT22;9284;52.298;21.164;2022-10-16T09:02:24;17.30;98.20
18317;DHT22;9284;52.298;21.164;2022-10-16T09:05:21;17.30;95.60
18317;DHT22;9284;52.298;21.164;2022-10-16T09:07:59;17.40;99.90
18317;DHT22;9284;52.298;21.164;2022-10-16T09:10:41;17.50;1.00
18317;DHT22;9284;52.298;21.164;2022-10-16T09:13:19;17.60;99.90
18317;DHT22;9284;52.298;21.164;2022-10-16T09:15:53;17.80;1.00
18317;DHT22;9284;52.298;21.164;2022-10-16T09:18:27;17.80;1.00
18317;DHT22;9284;52.298;21.164;2022-10-16T09:21:04;17.80;1.00
18317;DHT22;9284;52.298;21.164;2022-10-16T09:23:35;17.80;1.00
18317;DHT22;9284;52.298;21.164;2022-10-16T09:26:10;18.00;1.00
18317;DHT22;9284;52.298;21.164;2022-10-16T09:28:39;18.00;1.00
18317;DHT22;9284;52.298;21.164;2022-10-16T09:31:15;18.00;1.00
18317;DHT22;9284;52.298;21.164;2022-10-16T09:33:48;18.00;1.00
18317;DHT22;9284;52.298;21.164;2022-10-16T09:36:19;18.10;1.00
18317;DHT22;9284;52.298;21.164;2022-10-16T09:39:01;18.20;1.00
18317;DHT22;9284;52.298;21.164;2022-10-16T09:41:34;18.20;1.00
18317;DHT22;9284;52.298;21.164;2022-10-16T09:44:05;18.30;99.90
18317;DHT22;9284;52.298;21.164;2022-10-16T09:46:35;18.30;99.90
18317;DHT22;9284;52.298;21.164;2022-10-16T09:49:16;18.30;1.00
18317;DHT22;9284;52.298;21.164;2022-10-16T09:51:47;18.50;1.00
18317;DHT22;9284;52.298;21.164;2022-10-16T09:54:18;18.40;99.90
18317;DHT22;9284;52.298;21.164;2022-10-16T09:56:48;18.40;99.90
18317;DHT22;9284;52.298;21.164;2022-10-16T09:59:20;18.50;99.90
18317;DHT22;9284;52.298;21.164;2022-10-16T10:01:51;18.40;99.90
18317;DHT22;9284;52.298;21.164;2022-10-16T10:04:23;18.60;99.90
18317;DHT22;9284;52.298;21.164;2022-10-16T10:06:54;18.60;99.90
18317;DHT22;9284;52.298;21.164;2022-10-16T10:09:24;18.70;99.90
18317;DHT22;9284;52.298;21.164;2022-10-16T10:11:56;18.70;99.90
18317;DHT22;9284;52.298;21.164;2022-10-16T10:14:28;18.80;99.90
18317;DHT22;9284;52.298;21.164;2022-10-16T10:17:16;18.90;99.90
18317;DHT22;9284;52.298;21.164;2022-10-16T10:19:49;19.00;99.90
18317;DHT22;9284;52.298;21.164;2022-10-16T10:22:28;19.00;99.90
18317;DHT22;9284;52.298;21.164;2022-10-16T10:25:13;19.00;99.90
18317;DHT22;9284;52.298;21.164;2022-10-16T10:27:56;19.00;99.90
18317;DHT22;9284;52.298;21.164;2022-10-16T10:30:32;19.10;99.90
18317;DHT22;9284;52.298;21.164;2022-10-16T10:33:16;19.10;99.90
18317;DHT22;9284;52.298;21.164;2022-10-16T10:35:53;19.30;99.90
18317;DHT22;9284;52.298;21.164;2022-10-16T10:38:34;19.50;99.90
18317;DHT22;9284;52.298;21.164;2022-10-16T10:41:25;19.60;99.90
18317;DHT22;9284;52.298;21.164;2022-10-16T10:44:05;19.60;99.90
18317;DHT22;9284;52.298;21.164;2022-10-16T10:46:41;19.40;99.90
18317;DHT22;9284;52.298;21.164;2022-10-16T10:49:25;19.40;99.90
18317;DHT22;9284;52.298;21.164;2022-10-16T10:52:02;19.30;99.90
18317;DHT22;9284;52.298;21.164;2022-10-16T10:54:40;19.30;99.90
18317;DHT22;9284;52.298;21.164;2022-10-16T10:57:14;19.30;99.90
18317;DHT22;9284;52.298;21.164;2022-10-16T10:59:58;19.20;99.90
18317;DHT22;9284;52.298;21.164;2022-10-16T11:02:34;19.20;99.90
18317;DHT22;9284;52.298;21.164;2022-10-16T11:05:34;19.20;99.90
18317;DHT22;9284;52.298;21.164;2022-10-16T11:08:10;19.30;99.90
18317;DHT22;9284;52.298;21.164;2022-10-16T11:10:45;19.30;99.90
18317;DHT22;9284;52.298;21.164;2022-10-16T11:13:26;19.60;99.90
18317;DHT22;9284;52.298;21.164;2022-10-16T11:16:00;19.80;99.90
18317;DHT22;9284;52.298;21.164;2022-10-16T11:18:33;19.90;99.90
18317;DHT22;9284;52.298;21.164;2022-10-16T11:21:09;19.80;99.90
18317;DHT22;9284;52.298;21.164;2022-10-16T11:23:42;19.80;99.90
18317;DHT22;9284;52.298;21.164;2022-10-16T11:26:16;19.90;99.90
18317;DHT22;9284;52.298;21.164;2022-10-16T11:28:48;20.00;99.90
18317;DHT22;9284;52.298;21.164;2022-10-16T11:31:24;20.00;99.90
18317;DHT22;9284;52.298;21.164;2022-10-16T11:33:57;19.90;99.90
18317;DHT22;9284;52.298;21.164;2022-10-16T11:36:34;20.00;99.90
18317;DHT22;9284;52.298;21.164;2022-10-16T11:39:12;19.90;99.90
18317;DHT22;9284;52.298;21.164;2022-10-16T11:41:47;20.00;99.90
18317;DHT22;9284;52.298;21.164;2022-10-16T11:44:27;19.80;99.90
18317;DHT22;9284;52.298;21.164;2022-10-16T11:47:14;19.80;99.90
18317;DHT22;9284;52.298;21.164;2022-10-16T11:50:17;19.80;99.90
18317;DHT22;9284;52.298;21.164;2022-10-16T11:52:53;19.80;99.90
18317;DHT22;9284;52.298;21.164;2022-10-16T11:55:26;19.80;99.90
18317;DHT22;9284;52.298;21.164;2022-10-16T11:58:00;19.80;99.90
18317;DHT22;9284;52.298;21.164;2022-10-16T12:00:35;19.80;99.90
18317;DHT22;9284;52.298;21.164;2022-10-16T12:03:15;19.70;99.90
18317;DHT22;9284;52.298;21.164;2022-10-16T12:06:04;19.70;99.90
18317;DHT22;9284;52.298;21.164;2022-10-16T12:08:35;19.70;99.90
18317;DHT22;9284;52.298;21.164;2022-10-16T12:11:07;19.80;99.90
18317;DHT22;9284;52.298;21.164;2022-10-16T12:13:38;19.80;99.90
18317;DHT22;9284;52.298;21.164;2022-10-16T12:16:21;19.90;99.90
18317;DHT22;9284;52.298;21.164;2022-10-16T12:19:10;19.90;99.90
18317;DHT22;9284;52.298;21.164;2022-10-16T12:21:39;20.00;99.90
18317;DHT22;9284;52.298;21.164;2022-10-16T12:24:22;20.00;99.90
18317;DHT22;9284;52.298;21.164;2022-10-16T12:26:54;20.00;99.90
18317;DHT22;9284;52.298;21.164;2022-10-16T12:29:30;20.10;99.90
18317;DHT22;9284;52.298;21.164;2022-10-16T12:32:00;20.10;99.90
18317;DHT22;9284;52.298;21.164;2022-10-16T12:34:36;20.20;99.90
18317;DHT22;9284;52.298;21.164;2022-10-16T12:37:14;20.20;99.90
18317;DHT22;9284;52.298;21.164;2022-10-16T12:39:47;20.10;99.90
18317;DHT22;9284;52.298;21.164;2022-10-16T12:42:31;20.00;99.90
18317;DHT22;9284;52.298;21.164;2022-10-16T12:45:01;19.90;99.90
18317;DHT22;9284;52.298;21.164;2022-10-16T12:47:38;19.70;99.90
18317;DHT22;9284;52.298;21.164;2022-10-16T12:50:29;19.60;99.90
18317;DHT22;9284;52.298;21.164;2022-10-16T12:52:59;19.50;99.90
18317;DHT22;9284;52.298;21.164;2022-10-16T12:55:33;19.50;99.90
18317;DHT22;9284;52.298;21.164;2022-10-16T12:58:19;19.60;99.90
18317;DHT22;9284;52.298;21.164;2022-10-16T13:00:56;19.50;99.90
18317;DHT22;9284;52.298;21.164;2022-10-16T13:03:48;19.60;99.90
18317;DHT22;9284;52.298;21.164;2022-10-16T13:06:40;19.50;99.90
18317;DHT22;9284;52.298;21.164;2022-10-16T13:09:31;19.40;99.90
18317;DHT22;9284;52.298;21.164;2022-10-16T13:12:20;19.30;99.90
18317;DHT22;9284;52.298;21.164;2022-10-16T13:15:14;19.30;99.90
18317;DHT22;9284;52.298;21.164;2022-10-16T13:17:52;19.40;99.90
18317;DHT22;9284;52.298;21.164;2022-10-16T13:20:26;19.30;99.90
18317;DHT22;9284;52.298;21.164;2022-10-16T13:23:06;19.30;99.90
18317;DHT22;9284;52.298;21.164;2022-10-16T13:25:48;19.40;99.90
18317;DHT22;9284;52.298;21.164;2022-10-16T13:28:21;19.50;99.90
18317;DHT22;9284;52.298;21.164;2022-10-16T13:30:52;19.60;99.90
18317;DHT22;9284;52.298;21.164;2022-10-16T13:33:26;19.60;99.90
18317;DHT22;9284;52.298;21.164;2022-10-16T13:35:58;19.50;99.90
18317;DHT22;9284;52.298;21.164;2022-10-16T13:38:30;19.30;99.90
18317;DHT22;9284;52.298;21.164;2022-10-16T13:41:01;19.30;99.90
18317;DHT22;9284;52.298;21.164;2022-10-16T13:43:35;19.20;99.90
18317;DHT22;9284;52.298;21.164;2022-10-16T13:46:06;19.10;99.90
18317;DHT22;9284;52.298;21.164;2022-10-16T13:48:35;19.00;1.00
18317;DHT22;9284;52.298;21.164;2022-10-16T13:51:06;18.90;1.00
18317;DHT22;9284;52.298;21.164;2022-10-16T13:53:36;18.90;1.00
18317;DHT22;9284;52.298;21.164;2022-10-16T13:56:06;18.80;1.00
18317;DHT22;9284;52.298;21.164;2022-10-16T13:58:35;18.70;99.90
18317;DHT22;9284;52.298;21.164;2022-10-16T14:01:04;18.60;1.00
18317;DHT22;9284;52.298;21.164;2022-10-16T14:03:34;18.50;99.90
18317;DHT22;9284;52.298;21.164;2022-10-16T14:06:05;18.50;1.00
18317;DHT22;9284;52.298;21.164;2022-10-16T14:08:40;18.50;99.90
18317;DHT22;9284;52.298;21.164;2022-10-16T14:11:20;18.40;99.90
18317;DHT22;9284;52.298;21.164;2022-10-16T14:13:51;18.50;1.00
18317;DHT22;9284;52.298;21.164;2022-10-16T14:16:22;18.50;1.00
18317;DHT22;9284;52.298;21.164;2022-10-16T14:18:57;18.50;1.00
18317;DHT22;9284;52.298;21.164;2022-10-16T14:21:26;18.50;1.00
18317;DHT22;9284;52.298;21.164;2022-10-16T14:23:56;18.50;1.00
18317;DHT22;9284;52.298;21.164;2022-10-16T14:26:27;18.50;1.00
18317;DHT22;9284;52.298;21.164;2022-10-16T14:29:10;18.50;1.00
18317;DHT22;9284;52.298;21.164;2022-10-16T14:31:39;18.50;1.00
18317;DHT22;9284;52.298;21.164;2022-10-16T14:34:25;18.50;1.00
18317;DHT22;9284;52.298;21.164;2022-10-16T14:36:59;18.50;99.90
18317;DHT22;9284;52.298;21.164;2022-10-16T14:39:33;18.50;99.90
18317;DHT22;9284;52.298;21.164;2022-10-16T14:42:02;18.50;99.90
18317;DHT22;9284;52.298;21.164;2022-10-16T14:44:32;18.50;99.90
18317;DHT22;9284;52.298;21.164;2022-10-16T14:47:09;18.50;99.90
18317;DHT22;9284;52.298;21.164;2022-10-16T14:49:41;18.50;1.00
18317;DHT22;9284;52.298;21.164;2022-10-16T14:52:11;18.50;1.00
18317;DHT22;9284;52.298;21.164;2022-10-16T14:54:41;18.50;1.00
18317;DHT22;9284;52.298;21.164;2022-10-16T14:57:17;18.50;1.00
18317;DHT22;9284;52.298;21.164;2022-10-16T14:59:46;18.40;1.00
18317;DHT22;9284;52.298;21.164;2022-10-16T15:02:29;18.40;1.00
18317;DHT22;9284;52.298;21.164;2022-10-16T15:05:10;18.30;1.00
18317;DHT22;9284;52.298;21.164;2022-10-16T15:07:39;18.30;99.90
18317;DHT22;9284;52.298;21.164;2022-10-16T15:10:09;18.20;99.90
18317;DHT22;9284;52.298;21.164;2022-10-16T15:12:38;18.20;99.90
18317;DHT22;9284;52.298;21.164;2022-10-16T15:15:30;18.10;99.90
18317;DHT22;9284;52.298;21.164;2022-10-16T15:18:00;18.00;1.00
18317;DHT22;9284;52.298;21.164;2022-10-16T15:20:31;18.00;1.00
18317;DHT22;9284;52.298;21.164;2022-10-16T15:23:01;17.90;99.90
18317;DHT22;9284;52.298;21.164;2022-10-16T15:25:34;17.90;1.00
18317;DHT22;9284;52.298;21.164;2022-10-16T15:28:14;17.90;1.00
18317;DHT22;9284;52.298;21.164;2022-10-16T15:30:43;17.80;1.00
18317;DHT22;9284;52.298;21.164;2022-10-16T15:33:14;17.80;5.00
18317;DHT22;9284;52.298;21.164;2022-10-16T15:35:45;17.70;1.00
18317;DHT22;9284;52.298;21.164;2022-10-16T15:38:14;17.70;99.90
18317;DHT22;9284;52.298;21.164;2022-10-16T15:40:45;17.70;1.00
18317;DHT22;9284;52.298;21.164;2022-10-16T15:43:14;17.70;1.00
18317;DHT22;9284;52.298;21.164;2022-10-16T15:45:42;17.70;1.00
18317;DHT22;9284;52.298;21.164;2022-10-16T15:48:11;17.70;1.00
18317;DHT22;9284;52.298;21.164;2022-10-16T15:50:41;17.70;1.00
18317;DHT22;9284;52.298;21.164;2022-10-16T15:53:10;17.60;99.90
18317;DHT22;9284;52.298;21.164;2022-10-16T15:55:38;17.50;99.90
18317;DHT22;9284;52.298;21.164;2022-10-16T15:58:08;17.50;99.90
18317;DHT22;9284;52.298;21.164;2022-10-16T16:00:37;17.50;1.00
18317;DHT22;9284;52.298;21.164;2022-10-16T16:03:05;17.50;99.90
18317;DHT22;9284;52.298;21.164;2022-10-16T16:05:37;17.40;1.00
18317;DHT22;9284;52.298;21.164;2022-10-16T16:08:12;17.50;1.00
18317;DHT22;9284;52.298;21.164;2022-10-16T16:10:40;17.50;1.00
18317;DHT22;9284;52.298;21.164;2022-10-16T16:13:10;17.60;1.00
18317;DHT22;9284;52.298;21.164;2022-10-16T16:15:39;17.50;1.00
18317;DHT22;9284;52.298;21.164;2022-10-16T16:18:08;17.60;1.00
18317;DHT22;9284;52.298;21.164;2022-10-16T16:20:37;17.50;99.90
18317;DHT22;9284;52.298;21.164;2022-10-16T16:23:05;17.50;99.90
18317;DHT22;9284;52.298;21.164;2022-10-16T16:25:34;17.40;1.00
18317;DHT22;9284;52.298;21.164;2022-10-16T16:28:03;17.30;99.90
18317;DHT22;9284;52.298;21.164;2022-10-16T16:30:35;17.20;97.80
18317;DHT22;9284;52.298;21.164;2022-10-16T16:33:03;17.20;99.90
18317;DHT22;9284;52.298;21.164;2022-10-16T16:35:32;17.20;96.60
18317;DHT22;9284;52.298;21.164;2022-10-16T16:38:00;17.10;1.00
18317;DHT22;9284;52.298;21.164;2022-10-16T16:40:29;17.10;1.00
18317;DHT22;9284;52.298;21.164;2022-10-16T16:42:57;17.10;1.00
18317;DHT22;9284;52.298;21.164;2022-10-16T16:45:26;16.90;1.00
18317;DHT22;9284;52.298;21.164;2022-10-16T16:47:56;16.90;99.90
18317;DHT22;9284;52.298;21.164;2022-10-16T16:50:24;16.80;1.00
18317;DHT22;9284;52.298;21.164;2022-10-16T16:52:53;16.90;1.00
18317;DHT22;9284;52.298;21.164;2022-10-16T16:55:21;16.80;99.90
18317;DHT22;9284;52.298;21.164;2022-10-16T16:57:50;16.70;99.90
18317;DHT22;9284;52.298;21.164;2022-10-16T17:00:18;16.70;99.90
18317;DHT22;9284;52.298;21.164;2022-10-16T17:02:48;16.60;1.00
18317;DHT22;9284;52.298;21.164;2022-10-16T17:05:18;16.50;1.00
18317;DHT22;9284;52.298;21.164;2022-10-16T17:07:47;16.40;99.90
18317;DHT22;9284;52.298;21.164;2022-10-16T17:10:15;16.30;99.90
18317;DHT22;9284;52.298;21.164;2022-10-16T17:12:44;16.20;1.00
18317;DHT22;9284;52.298;21.164;2022-10-16T17:15:12;16.10;1.00
18317;DHT22;9284;52.298;21.164;2022-10-16T17:17:41;16.00;1.00
18317;DHT22;9284;52.298;21.164;2022-10-16T17:20:09;16.00;1.00
18317;DHT22;9284;52.298;21.164;2022-10-16T17:22:39;15.90;1.00
18317;DHT22;9284;52.298;21.164;2022-10-16T17:25:08;15.80;1.00
18317;DHT22;9284;52.298;21.164;2022-10-16T17:27:37;15.80;12.00
18317;DHT22;9284;52.298;21.164;2022-10-16T17:30:06;15.70;99.90
18317;DHT22;9284;52.298;21.164;2022-10-16T17:32:36;15.60;99.90
18317;DHT22;9284;52.298;21.164;2022-10-16T17:35:05;15.60;99.90
18317;DHT22;9284;52.298;21.164;2022-10-16T17:37:34;15.50;99.90
18317;DHT22;9284;52.298;21.164;2022-10-16T17:40:05;15.50;1.00
18317;DHT22;9284;52.298;21.164;2022-10-16T17:42:34;15.40;1.00
18317;DHT22;9284;52.298;21.164;2022-10-16T17:45:03;15.40;1.00
18317;DHT22;9284;52.298;21.164;2022-10-16T17:47:31;15.30;1.00
18317;DHT22;9284;52.298;21.164;2022-10-16T17:50:00;15.30;1.00
18317;DHT22;9284;52.298;21.164;2022-10-16T17:52:28;15.20;1.00
18317;DHT22;9284;52.298;21.164;2022-10-16T17:54:56;15.30;1.00
18317;DHT22;9284;52.298;21.164;2022-10-16T17:57:26;15.10;1.00
18317;DHT22;9284;52.298;21.164;2022-10-16T17:59:55;15.10;1.00
18317;DHT22;9284;52.298;21.164;2022-10-16T18:02:23;15.20;1.00
18317;DHT22;9284;52.298;21.164;2022-10-16T18:04:52;15.20;59.00
18317;DHT22;9284;52.298;21.164;2022-10-16T18:07:21;15.10;99.90
18317;DHT22;9284;52.298;21.164;2022-10-16T18:09:50;15.10;99.90
18317;DHT22;9284;52.298;21.164;2022-10-16T18:12:39;15.20;99.90
18317;DHT22;9284;52.298;21.164;2022-10-16T18:15:08;15.20;99.90
18317;DHT22;9284;52.298;21.164;2022-10-16T18:17:37;15.10;99.90
18317;DHT22;9284;52.298;21.164;2022-10-16T18:20:06;15.10;99.90
18317;DHT22;9284;52.298;21.164;2022-10-16T18:22:35;15.20;99.90
18317;DHT22;9284;52.298;21.164;2022-10-16T18:25:05;15.10;99.90
18317;DHT22;9284;52.298;21.164;2022-10-16T18:27:33;15.00;99.90
18317;DHT22;9284;52.298;21.164;2022-10-16T18:30:04;15.00;99.90
18317;DHT22;9284;52.298;21.164;2022-10-16T18:32:33;15.00;99.90
18317;DHT22;9284;52.298;21.164;2022-10-16T18:35:01;15.00;99.90
18317;DHT22;9284;52.298;21.164;2022-10-16T18:37:30;15.00;99.90
18317;DHT22;9284;52.298;21.164;2022-10-16T18:39:58;15.10;99.90
18317;DHT22;9284;52.298;21.164;2022-10-16T18:42:26;15.10;99.90
18317;DHT22;9284;52.298;21.164;2022-10-16T18:44:55;15.10;99.90
18317;DHT22;9284;52.298;21.164;2022-10-16T18:47:25;15.10;95.80
18317;DHT22;9284;52.298;21.164;2022-10-16T18:49:53;15.20;1.00
18317;DHT22;9284;52.298;21.164;2022-10-16T18:52:22;15.20;1.00
18317;DHT22;9284;52.298;21.164;2022-10-16T18:54:55;15.10;1.00
18317;DHT22;9284;52.298;21.164;2022-10-16T18:57:26;15.00;50.60
18317;DHT22;9284;52.298;21.164;2022-10-16T18:59:56;15.00;99.90
18317;DHT22;9284;52.298;21.164;2022-10-16T19:02:26;14.90;99.90
18317;DHT22;9284;52.298;21.164;2022-10-16T19:04:54;14.80;99.90
18317;DHT22;9284;52.298;21.164;2022-10-16T19:07:23;14.80;99.90
18317;DHT22;9284;52.298;21.164;2022-10-16T19:09:52;14.70;99.90
18317;DHT22;9284;52.298;21.164;2022-10-16T19:12:20;14.70;1.00
18317;DHT22;9284;52.298;21.164;2022-10-16T19:14:49;14.70;1.00
18317;DHT22;9284;52.298;21.164;2022-10-16T19:17:17;14.70;1.00
18317;DHT22;9284;52.298;21.164;2022-10-16T19:19:47;14.60;1.00
18317;DHT22;9284;52.298;21.164;2022-10-16T19:22:15;14.50;1.00
18317;DHT22;9284;52.298;21.164;2022-10-16T19:24:54;14.40;1.00
18317;DHT22;9284;52.298;21.164;2022-10-16T19:27:22;14.40;1.00